TNCM/SXM METAR and TAF weather

Enter ICAO airport designator
Station Type Date Time Source
TNCM METAR 2019/02/20 23:00 UTC NOAA

TNCM 202300Z 07012KT 040V100 9999 FEW021 25/19 Q1018 NOSIG RMK A3007


Station Type Date Time Source
TNCM Decoded METAR 2019/02/20 23:00 UTC NOAA

Juliana Airport, Saint Maarten, Netherlands Antilles (TNCM) 18-03N 063-07W 9M
Feb 20, 2019 - 06:00 PM EST / 2019.02.20 2300 UTC
Wind: from the ENE (070 degrees) at 14 MPH (12 KT) (direction variable):0
Visibility: greater than 7 mile(s):0
Sky conditions: mostly clear
Temperature: 77 F (25 C)
Dew Point: 66 F (19 C)
Relative Humidity: 69%
Pressure (altimeter): 30.06 in. Hg (1018 hPa)
ob: TNCM 202300Z 07012KT 040V100 9999 FEW021 25/19 Q1018 NOSIG RMK A3007
cycle: 23

Station Type Date Time Source
TNCM TAF 2019/02/20 18:24 UTC NOAA

TAF TNCM 201720Z 2018/2118 08015G22KT P6SM FEW020
FM210800 07018G23KT P6SM VCSH SCT020


Example: see airport list